sensor_id;sensor_type;location;lat;lon;timestamp;P1;durP1;ratioP1;P2;durP2;ratioP2
61553;SDS011;47425;51.976;5.326;2022-08-19T08:02:35;24.42;;;16.58;;
61553;SDS011;47425;51.976;5.326;2022-08-19T08:05:02;22.98;;;15.23;;
61553;SDS011;47425;51.976;5.326;2022-08-19T08:07:47;36.00;;;22.27;;
61553;SDS011;47425;51.976;5.326;2022-08-19T08:10:33;31.27;;;22.50;;
61553;SDS011;47425;51.976;5.326;2022-08-19T08:12:59;38.22;;;22.60;;
61553;SDS011;47425;51.976;5.326;2022-08-19T08:15:25;21.77;;;18.00;;
61553;SDS011;47425;51.976;5.326;2022-08-19T08:17:51;22.58;;;14.32;;
61553;SDS011;47425;51.976;5.326;2022-08-19T08:20:17;18.95;;;12.77;;
61553;SDS011;47425;51.976;5.326;2022-08-19T08:22:46;18.02;;;13.23;;
61553;SDS011;47425;51.976;5.326;2022-08-19T08:25:32;19.20;;;12.65;;
61553;SDS011;47425;51.976;5.326;2022-08-19T08:28:00;15.73;;;11.80;;
61553;SDS011;47425;51.976;5.326;2022-08-19T08:30:26;18.73;;;13.27;;
61553;SDS011;47425;51.976;5.326;2022-08-19T08:32:54;26.40;;;18.55;;
61553;SDS011;47425;51.976;5.326;2022-08-19T08:35:41;24.57;;;18.67;;
61553;SDS011;47425;51.976;5.326;2022-08-19T08:38:08;27.53;;;19.47;;
61553;SDS011;47425;51.976;5.326;2022-08-19T08:40:44;30.52;;;20.83;;
61553;SDS011;47425;51.976;5.326;2022-08-19T08:43:27;29.15;;;20.38;;
61553;SDS011;47425;51.976;5.326;2022-08-19T08:48:37;29.95;;;22.75;;
61553;SDS011;47425;51.976;5.326;2022-08-19T08:51:14;32.15;;;23.13;;
61553;SDS011;47425;51.976;5.326;2022-08-19T08:54:07;30.27;;;21.58;;
61553;SDS011;47425;51.976;5.326;2022-08-19T08:56:38;30.70;;;22.35;;
61553;SDS011;47425;51.976;5.326;2022-08-19T08:59:05;30.05;;;20.88;;
61553;SDS011;47425;51.976;5.326;2022-08-19T09:01:37;31.25;;;21.30;;
61553;SDS011;47425;51.976;5.326;2022-08-19T09:04:04;27.08;;;20.23;;
61553;SDS011;47425;51.976;5.326;2022-08-19T09:09:24;22.05;;;17.00;;
61553;SDS011;47425;51.976;5.326;2022-08-19T09:12:10;26.88;;;18.60;;
61553;SDS011;47425;51.976;5.326;2022-08-19T09:17:26;25.88;;;18.77;;
61553;SDS011;47425;51.976;5.326;2022-08-19T09:22:49;21.92;;;15.82;;
61553;SDS011;47425;51.976;5.326;2022-08-19T09:25:17;24.23;;;16.65;;
61553;SDS011;47425;51.976;5.326;2022-08-19T09:27:48;22.10;;;16.63;;
61553;SDS011;47425;51.976;5.326;2022-08-19T09:30:17;22.55;;;16.98;;
61553;SDS011;47425;51.976;5.326;2022-08-19T09:32:47;25.02;;;19.70;;
61553;SDS011;47425;51.976;5.326;2022-08-19T09:35:13;27.83;;;18.98;;
61553;SDS011;47425;51.976;5.326;2022-08-19T09:37:40;32.65;;;20.13;;
61553;SDS011;47425;51.976;5.326;2022-08-19T09:40:06;25.00;;;19.88;;
61553;SDS011;47425;51.976;5.326;2022-08-19T09:42:33;28.70;;;20.75;;
61553;SDS011;47425;51.976;5.326;2022-08-19T09:44:59;28.48;;;20.60;;
61553;SDS011;47425;51.976;5.326;2022-08-19T09:47:26;29.88;;;20.88;;
61553;SDS011;47425;51.976;5.326;2022-08-19T09:49:51;30.00;;;21.02;;
61553;SDS011;47425;51.976;5.326;2022-08-19T09:52:18;30.55;;;21.63;;
61553;SDS011;47425;51.976;5.326;2022-08-19T09:54:43;32.00;;;21.63;;
61553;SDS011;47425;51.976;5.326;2022-08-19T09:57:09;33.72;;;20.60;;
61553;SDS011;47425;51.976;5.326;2022-08-19T09:59:34;30.55;;;21.15;;
61553;SDS011;47425;51.976;5.326;2022-08-19T10:02:04;32.38;;;21.05;;
61553;SDS011;47425;51.976;5.326;2022-08-19T10:04:30;33.35;;;21.98;;
61553;SDS011;47425;51.976;5.326;2022-08-19T10:07:14;34.63;;;23.70;;
61553;SDS011;47425;51.976;5.326;2022-08-19T10:09:40;27.25;;;19.95;;
61553;SDS011;47425;51.976;5.326;2022-08-19T10:12:06;31.30;;;19.77;;
61553;SDS011;47425;51.976;5.326;2022-08-19T10:14:33;35.72;;;22.40;;
61553;SDS011;47425;51.976;5.326;2022-08-19T10:17:00;38.13;;;21.63;;
61553;SDS011;47425;51.976;5.326;2022-08-19T10:19:28;32.38;;;22.25;;
61553;SDS011;47425;51.976;5.326;2022-08-19T10:22:03;33.47;;;23.55;;
61553;SDS011;47425;51.976;5.326;2022-08-19T10:24:30;33.70;;;23.35;;
61553;SDS011;47425;51.976;5.326;2022-08-19T10:26:56;36.10;;;21.95;;
61553;SDS011;47425;51.976;5.326;2022-08-19T10:29:23;32.13;;;22.00;;
61553;SDS011;47425;51.976;5.326;2022-08-19T10:31:48;36.53;;;22.55;;
61553;SDS011;47425;51.976;5.326;2022-08-19T10:34:14;35.28;;;22.17;;
61553;SDS011;47425;51.976;5.326;2022-08-19T10:36:40;35.17;;;23.80;;
61553;SDS011;47425;51.976;5.326;2022-08-19T10:39:07;31.92;;;20.85;;
61553;SDS011;47425;51.976;5.326;2022-08-19T10:41:35;34.88;;;21.48;;
61553;SDS011;47425;51.976;5.326;2022-08-19T10:44:07;33.88;;;21.65;;
61553;SDS011;47425;51.976;5.326;2022-08-19T10:46:39;35.15;;;23.13;;
61553;SDS011;47425;51.976;5.326;2022-08-19T10:49:11;37.67;;;23.73;;
61553;SDS011;47425;51.976;5.326;2022-08-19T10:51:37;34.88;;;24.17;;
61553;SDS011;47425;51.976;5.326;2022-08-19T10:54:22;35.55;;;22.83;;
61553;SDS011;47425;51.976;5.326;2022-08-19T10:57:10;30.67;;;21.88;;
61553;SDS011;47425;51.976;5.326;2022-08-19T10:59:35;32.15;;;22.58;;
61553;SDS011;47425;51.976;5.326;2022-08-19T11:02:03;34.88;;;22.60;;
61553;SDS011;47425;51.976;5.326;2022-08-19T11:04:30;29.83;;;22.60;;
61553;SDS011;47425;51.976;5.326;2022-08-19T11:06:57;25.73;;;20.70;;
61553;SDS011;47425;51.976;5.326;2022-08-19T11:09:23;32.30;;;22.30;;
61553;SDS011;47425;51.976;5.326;2022-08-19T11:11:52;28.55;;;20.90;;
61553;SDS011;47425;51.976;5.326;2022-08-19T11:14:18;26.80;;;20.92;;
61553;SDS011;47425;51.976;5.326;2022-08-19T11:16:45;26.02;;;19.45;;
61553;SDS011;47425;51.976;5.326;2022-08-19T11:19:15;28.90;;;19.80;;
61553;SDS011;47425;51.976;5.326;2022-08-19T11:21:45;26.63;;;19.45;;
61553;SDS011;47425;51.976;5.326;2022-08-19T11:24:17;28.35;;;20.48;;
61553;SDS011;47425;51.976;5.326;2022-08-19T11:26:47;27.67;;;19.40;;
61553;SDS011;47425;51.976;5.326;2022-08-19T11:29:14;27.00;;;21.27;;
61553;SDS011;47425;51.976;5.326;2022-08-19T11:31:44;26.35;;;20.80;;
61553;SDS011;47425;51.976;5.326;2022-08-19T11:34:12;24.52;;;18.20;;
61553;SDS011;47425;51.976;5.326;2022-08-19T11:36:42;26.60;;;18.60;;
61553;SDS011;47425;51.976;5.326;2022-08-19T11:39:12;23.25;;;18.13;;
61553;SDS011;47425;51.976;5.326;2022-08-19T11:41:39;22.65;;;17.90;;
61553;SDS011;47425;51.976;5.326;2022-08-19T11:44:06;24.23;;;17.90;;
61553;SDS011;47425;51.976;5.326;2022-08-19T11:46:33;27.87;;;18.87;;
61553;SDS011;47425;51.976;5.326;2022-08-19T11:49:02;24.40;;;17.55;;
61553;SDS011;47425;51.976;5.326;2022-08-19T11:51:30;21.50;;;17.98;;
61553;SDS011;47425;51.976;5.326;2022-08-19T11:54:22;24.25;;;18.02;;
61553;SDS011;47425;51.976;5.326;2022-08-19T11:57:12;21.65;;;17.23;;
61553;SDS011;47425;51.976;5.326;2022-08-19T12:00:05;20.30;;;15.77;;
61553;SDS011;47425;51.976;5.326;2022-08-19T12:02:57;20.25;;;16.38;;
61553;SDS011;47425;51.976;5.326;2022-08-19T12:05:48;18.80;;;15.68;;
61553;SDS011;47425;51.976;5.326;2022-08-19T12:08:40;17.95;;;14.20;;
61553;SDS011;47425;51.976;5.326;2022-08-19T12:11:32;14.48;;;12.98;;
61553;SDS011;47425;51.976;5.326;2022-08-19T12:14:23;19.08;;;14.15;;
61553;SDS011;47425;51.976;5.326;2022-08-19T12:17:14;19.50;;;14.55;;
61553;SDS011;47425;51.976;5.326;2022-08-19T12:20:05;16.25;;;13.82;;
61553;SDS011;47425;51.976;5.326;2022-08-19T12:22:58;20.23;;;14.30;;
61553;SDS011;47425;51.976;5.326;2022-08-19T12:25:49;17.85;;;13.93;;
61553;SDS011;47425;51.976;5.326;2022-08-19T12:28:41;16.48;;;13.25;;
61553;SDS011;47425;51.976;5.326;2022-08-19T12:31:32;16.13;;;12.18;;
61553;SDS011;47425;51.976;5.326;2022-08-19T12:34:24;18.10;;;12.10;;
61553;SDS011;47425;51.976;5.326;2022-08-19T12:37:15;16.27;;;12.38;;
61553;SDS011;47425;51.976;5.326;2022-08-19T12:40:06;16.67;;;12.70;;
61553;SDS011;47425;51.976;5.326;2022-08-19T12:42:57;18.80;;;11.48;;
61553;SDS011;47425;51.976;5.326;2022-08-19T12:45:48;16.58;;;11.48;;
61553;SDS011;47425;51.976;5.326;2022-08-19T12:48:39;20.73;;;11.88;;
61553;SDS011;47425;51.976;5.326;2022-08-19T12:51:35;16.13;;;11.27;;
61553;SDS011;47425;51.976;5.326;2022-08-19T12:54:27;14.98;;;10.23;;
61553;SDS011;47425;51.976;5.326;2022-08-19T12:57:19;12.85;;;8.98;;
61553;SDS011;47425;51.976;5.326;2022-08-19T13:00:13;11.00;;;8.82;;
61553;SDS011;47425;51.976;5.326;2022-08-19T13:03:11;13.60;;;8.75;;
61553;SDS011;47425;51.976;5.326;2022-08-19T13:06:01;10.77;;;8.65;;
61553;SDS011;47425;51.976;5.326;2022-08-19T13:08:52;13.73;;;9.98;;
61553;SDS011;47425;51.976;5.326;2022-08-19T13:11:43;15.77;;;9.98;;
61553;SDS011;47425;51.976;5.326;2022-08-19T13:14:35;13.25;;;9.90;;
61553;SDS011;47425;51.976;5.326;2022-08-19T13:17:25;14.55;;;11.25;;
61553;SDS011;47425;51.976;5.326;2022-08-19T13:22:18;15.60;;;11.15;;
61553;SDS011;47425;51.976;5.326;2022-08-19T13:24:44;14.02;;;10.98;;
61553;SDS011;47425;51.976;5.326;2022-08-19T13:27:10;12.48;;;10.30;;
61553;SDS011;47425;51.976;5.326;2022-08-19T13:29:36;13.48;;;9.73;;
61553;SDS011;47425;51.976;5.326;2022-08-19T13:32:22;9.23;;;6.97;;
61553;SDS011;47425;51.976;5.326;2022-08-19T13:35:07;7.78;;;5.18;;
61553;SDS011;47425;51.976;5.326;2022-08-19T13:37:33;7.85;;;4.75;;
61553;SDS011;47425;51.976;5.326;2022-08-19T13:40:19;6.95;;;5.90;;
61553;SDS011;47425;51.976;5.326;2022-08-19T13:42:49;7.82;;;5.60;;
61553;SDS011;47425;51.976;5.326;2022-08-19T13:45:17;8.30;;;5.35;;
61553;SDS011;47425;51.976;5.326;2022-08-19T13:47:46;12.23;;;5.07;;
61553;SDS011;47425;51.976;5.326;2022-08-19T13:50:14;8.47;;;4.70;;
61553;SDS011;47425;51.976;5.326;2022-08-19T13:52:42;7.13;;;4.10;;
61553;SDS011;47425;51.976;5.326;2022-08-19T13:55:08;7.53;;;3.90;;
61553;SDS011;47425;51.976;5.326;2022-08-19T13:57:36;3.70;;;3.38;;
61553;SDS011;47425;51.976;5.326;2022-08-19T14:00:05;11.20;;;4.13;;
61553;SDS011;47425;51.976;5.326;2022-08-19T14:02:34;8.43;;;3.65;;
61553;SDS011;47425;51.976;5.326;2022-08-19T14:04:59;7.82;;;3.60;;
61553;SDS011;47425;51.976;5.326;2022-08-19T14:07:26;7.70;;;3.33;;
61553;SDS011;47425;51.976;5.326;2022-08-19T14:09:51;7.53;;;3.60;;
61553;SDS011;47425;51.976;5.326;2022-08-19T14:12:21;6.15;;;3.92;;
61553;SDS011;47425;51.976;5.326;2022-08-19T14:14:49;8.68;;;3.60;;
61553;SDS011;47425;51.976;5.326;2022-08-19T14:17:15;3.33;;;2.90;;
61553;SDS011;47425;51.976;5.326;2022-08-19T14:19:41;7.40;;;3.30;;
61553;SDS011;47425;51.976;5.326;2022-08-19T14:22:07;4.70;;;2.63;;
61553;SDS011;47425;51.976;5.326;2022-08-19T14:24:34;6.43;;;3.20;;
61553;SDS011;47425;51.976;5.326;2022-08-19T14:26:59;5.95;;;2.78;;
61553;SDS011;47425;51.976;5.326;2022-08-19T14:29:25;4.05;;;2.60;;
61553;SDS011;47425;51.976;5.326;2022-08-19T14:31:54;3.55;;;2.80;;
61553;SDS011;47425;51.976;5.326;2022-08-19T14:34:21;2.77;;;2.47;;
61553;SDS011;47425;51.976;5.326;2022-08-19T14:36:47;3.65;;;2.70;;
61553;SDS011;47425;51.976;5.326;2022-08-19T14:39:13;3.88;;;2.58;;
61553;SDS011;47425;51.976;5.326;2022-08-19T14:41:40;3.95;;;2.42;;
61553;SDS011;47425;51.976;5.326;2022-08-19T14:44:11;2.53;;;2.33;;
61553;SDS011;47425;51.976;5.326;2022-08-19T14:46:40;5.13;;;2.38;;
61553;SDS011;47425;51.976;5.326;2022-08-19T14:49:05;3.53;;;2.70;;
61553;SDS011;47425;51.976;5.326;2022-08-19T14:51:32;4.43;;;2.57;;
61553;SDS011;47425;51.976;5.326;2022-08-19T14:53:58;3.33;;;2.20;;
61553;SDS011;47425;51.976;5.326;2022-08-19T14:56:25;3.08;;;2.33;;
61553;SDS011;47425;51.976;5.326;2022-08-19T14:58:54;3.22;;;1.83;;
61553;SDS011;47425;51.976;5.326;2022-08-19T15:01:22;2.22;;;1.95;;
61553;SDS011;47425;51.976;5.326;2022-08-19T15:03:48;3.08;;;2.20;;
61553;SDS011;47425;51.976;5.326;2022-08-19T15:06:15;2.92;;;2.10;;
61553;SDS011;47425;51.976;5.326;2022-08-19T15:08:42;3.25;;;2.35;;
61553;SDS011;47425;51.976;5.326;2022-08-19T15:11:13;3.05;;;2.13;;
61553;SDS011;47425;51.976;5.326;2022-08-19T15:13:40;2.15;;;1.90;;
61553;SDS011;47425;51.976;5.326;2022-08-19T15:16:07;2.60;;;2.25;;
61553;SDS011;47425;51.976;5.326;2022-08-19T15:18:34;3.23;;;1.80;;
61553;SDS011;47425;51.976;5.326;2022-08-19T15:21:00;2.50;;;2.08;;
61553;SDS011;47425;51.976;5.326;2022-08-19T15:23:27;4.78;;;2.08;;
61553;SDS011;47425;51.976;5.326;2022-08-19T15:25:53;2.25;;;1.90;;
61553;SDS011;47425;51.976;5.326;2022-08-19T15:28:23;2.75;;;2.05;;
61553;SDS011;47425;51.976;5.326;2022-08-19T15:30:50;6.50;;;2.05;;
61553;SDS011;47425;51.976;5.326;2022-08-19T15:33:17;3.30;;;2.08;;
61553;SDS011;47425;51.976;5.326;2022-08-19T15:35:46;5.57;;;2.15;;
61553;SDS011;47425;51.976;5.326;2022-08-19T15:38:12;6.47;;;2.45;;
61553;SDS011;47425;51.976;5.326;2022-08-19T15:40:38;5.07;;;2.20;;
61553;SDS011;47425;51.976;5.326;2022-08-19T15:43:06;4.18;;;2.35;;
61553;SDS011;47425;51.976;5.326;2022-08-19T15:45:32;3.55;;;2.25;;
61553;SDS011;47425;51.976;5.326;2022-08-19T15:47:59;2.63;;;1.92;;
61553;SDS011;47425;51.976;5.326;2022-08-19T15:50:25;4.32;;;2.65;;
61553;SDS011;47425;51.976;5.326;2022-08-19T15:52:54;3.35;;;2.47;;
61553;SDS011;47425;51.976;5.326;2022-08-19T15:55:25;10.60;;;5.60;;
61553;SDS011;47425;51.976;5.326;2022-08-19T15:57:53;10.43;;;5.85;;
61553;SDS011;47425;51.976;5.326;2022-08-19T16:00:37;8.98;;;6.57;;
61553;SDS011;47425;51.976;5.326;2022-08-19T16:03:23;7.20;;;6.20;;
61553;SDS011;47425;51.976;5.326;2022-08-19T16:06:08;10.27;;;9.20;;
61553;SDS011;47425;51.976;5.326;2022-08-19T16:08:57;9.85;;;8.85;;
61553;SDS011;47425;51.976;5.326;2022-08-19T16:11:28;9.95;;;7.90;;
61553;SDS011;47425;51.976;5.326;2022-08-19T16:13:59;9.25;;;8.10;;
61553;SDS011;47425;51.976;5.326;2022-08-19T16:16:27;8.23;;;7.22;;
61553;SDS011;47425;51.976;5.326;2022-08-19T16:18:55;10.75;;;7.63;;
61553;SDS011;47425;51.976;5.326;2022-08-19T16:21:22;11.48;;;7.70;;
61553;SDS011;47425;51.976;5.326;2022-08-19T16:23:52;12.52;;;8.50;;
61553;SDS011;47425;51.976;5.326;2022-08-19T16:26:18;8.43;;;7.32;;
61553;SDS011;47425;51.976;5.326;2022-08-19T16:28:44;10.60;;;8.60;;
61553;SDS011;47425;51.976;5.326;2022-08-19T16:31:13;10.68;;;7.97;;
61553;SDS011;47425;51.976;5.326;2022-08-19T16:33:39;9.88;;;8.60;;
61553;SDS011;47425;51.976;5.326;2022-08-19T16:36:06;9.35;;;8.23;;
61553;SDS011;47425;51.976;5.326;2022-08-19T16:38:32;8.88;;;7.78;;
61553;SDS011;47425;51.976;5.326;2022-08-19T16:40:59;9.20;;;7.72;;
61553;SDS011;47425;51.976;5.326;2022-08-19T16:43:26;10.05;;;7.75;;
61553;SDS011;47425;51.976;5.326;2022-08-19T16:45:53;9.63;;;7.38;;
61553;SDS011;47425;51.976;5.326;2022-08-19T16:48:21;9.98;;;8.00;;
61553;SDS011;47425;51.976;5.326;2022-08-19T16:50:48;9.43;;;7.57;;
61553;SDS011;47425;51.976;5.326;2022-08-19T16:53:15;9.85;;;7.95;;
61553;SDS011;47425;51.976;5.326;2022-08-19T16:55:42;12.07;;;7.47;;
61553;SDS011;47425;51.976;5.326;2022-08-19T16:58:11;10.05;;;7.65;;
61553;SDS011;47425;51.976;5.326;2022-08-19T17:00:36;9.70;;;7.75;;
61553;SDS011;47425;51.976;5.326;2022-08-19T17:03:05;9.65;;;7.22;;
61553;SDS011;47425;51.976;5.326;2022-08-19T17:05:45;7.47;;;6.78;;
61553;SDS011;47425;51.976;5.326;2022-08-19T17:08:14;8.52;;;7.20;;
61553;SDS011;47425;51.976;5.326;2022-08-19T17:10:43;12.30;;;6.88;;
61553;SDS011;47425;51.976;5.326;2022-08-19T17:13:10;8.95;;;6.85;;
61553;SDS011;47425;51.976;5.326;2022-08-19T17:15:38;7.90;;;6.38;;
61553;SDS011;47425;51.976;5.326;2022-08-19T17:18:04;7.93;;;6.35;;
61553;SDS011;47425;51.976;5.326;2022-08-19T17:20:31;8.63;;;6.78;;
61553;SDS011;47425;51.976;5.326;2022-08-19T17:22:58;10.13;;;6.32;;
61553;SDS011;47425;51.976;5.326;2022-08-19T17:25:26;8.57;;;6.03;;
61553;SDS011;47425;51.976;5.326;2022-08-19T17:27:53;10.63;;;5.70;;
61553;SDS011;47425;51.976;5.326;2022-08-19T17:30:19;8.32;;;4.97;;
61553;SDS011;47425;51.976;5.326;2022-08-19T17:32:46;6.03;;;4.25;;
61553;SDS011;47425;51.976;5.326;2022-08-19T17:35:14;9.25;;;4.13;;
61553;SDS011;47425;51.976;5.326;2022-08-19T17:37:47;8.95;;;3.83;;
61553;SDS011;47425;51.976;5.326;2022-08-19T17:40:14;5.53;;;3.92;;
61553;SDS011;47425;51.976;5.326;2022-08-19T17:43:00;5.50;;;3.85;;
61553;SDS011;47425;51.976;5.326;2022-08-19T17:45:27;4.38;;;3.25;;
61553;SDS011;47425;51.976;5.326;2022-08-19T17:47:53;7.38;;;3.88;;
61553;SDS011;47425;51.976;5.326;2022-08-19T17:50:22;5.80;;;3.58;;
61553;SDS011;47425;51.976;5.326;2022-08-19T17:52:48;5.45;;;4.13;;
61553;SDS011;47425;51.976;5.326;2022-08-19T17:55:16;17.25;;;3.97;;
61553;SDS011;47425;51.976;5.326;2022-08-19T17:57:42;5.00;;;3.65;;
61553;SDS011;47425;51.976;5.326;2022-08-19T18:00:08;9.23;;;3.42;;
61553;SDS011;47425;51.976;5.326;2022-08-19T18:02:44;10.50;;;4.38;;
61553;SDS011;47425;51.976;5.326;2022-08-19T18:05:17;7.07;;;4.40;;
61553;SDS011;47425;51.976;5.326;2022-08-19T18:07:43;8.38;;;4.30;;
61553;SDS011;47425;51.976;5.326;2022-08-19T18:10:09;6.88;;;4.25;;
61553;SDS011;47425;51.976;5.326;2022-08-19T18:12:36;6.30;;;4.73;;
61553;SDS011;47425;51.976;5.326;2022-08-19T18:15:04;5.90;;;4.40;;
61553;SDS011;47425;51.976;5.326;2022-08-19T18:17:31;7.63;;;4.10;;
61553;SDS011;47425;51.976;5.326;2022-08-19T18:19:57;9.45;;;4.22;;
61553;SDS011;47425;51.976;5.326;2022-08-19T18:22:27;5.20;;;3.53;;
61553;SDS011;47425;51.976;5.326;2022-08-19T18:24:56;7.20;;;3.22;;
61553;SDS011;47425;51.976;5.326;2022-08-19T18:27:23;4.03;;;2.60;;
61553;SDS011;47425;51.976;5.326;2022-08-19T18:30:10;5.15;;;2.45;;
61553;SDS011;47425;51.976;5.326;2022-08-19T18:32:38;7.38;;;2.22;;
61553;SDS011;47425;51.976;5.326;2022-08-19T18:35:08;2.30;;;1.70;;
61553;SDS011;47425;51.976;5.326;2022-08-19T18:37:39;3.53;;;1.52;;
61553;SDS011;47425;51.976;5.326;2022-08-19T18:40:07;3.25;;;1.58;;
61553;SDS011;47425;51.976;5.326;2022-08-19T18:45:48;2.88;;;1.40;;
61553;SDS011;47425;51.976;5.326;2022-08-19T18:48:34;2.03;;;1.30;;
61553;SDS011;47425;51.976;5.326;2022-08-19T18:51:19;3.17;;;1.30;;
61553;SDS011;47425;51.976;5.326;2022-08-19T18:53:46;3.93;;;1.20;;
61553;SDS011;47425;51.976;5.326;2022-08-19T18:56:14;3.58;;;1.27;;
61553;SDS011;47425;51.976;5.326;2022-08-19T18:58:41;3.95;;;1.10;;
61553;SDS011;47425;51.976;5.326;2022-08-19T19:01:14;1.27;;;1.00;;
61553;SDS011;47425;51.976;5.326;2022-08-19T19:03:43;3.65;;;1.00;;
61553;SDS011;47425;51.976;5.326;2022-08-19T19:06:12;1.73;;;0.90;;
61553;SDS011;47425;51.976;5.326;2022-08-19T19:08:39;1.55;;;0.85;;
61553;SDS011;47425;51.976;5.326;2022-08-19T19:11:07;3.22;;;1.10;;
61553;SDS011;47425;51.976;5.326;2022-08-19T19:13:33;1.17;;;0.90;;
61553;SDS011;47425;51.976;5.326;2022-08-19T19:16:00;0.70;;;0.70;;
61553;SDS011;47425;51.976;5.326;2022-08-19T19:18:29;2.65;;;1.00;;
61553;SDS011;47425;51.976;5.326;2022-08-19T19:21:14;1.10;;;1.00;;
61553;SDS011;47425;51.976;5.326;2022-08-19T19:23:40;2.33;;;1.20;;
61553;SDS011;47425;51.976;5.326;2022-08-19T19:26:10;2.28;;;1.08;;
61553;SDS011;47425;51.976;5.326;2022-08-19T19:28:37;1.85;;;1.10;;
61553;SDS011;47425;51.976;5.326;2022-08-19T19:31:09;1.40;;;1.00;;
61553;SDS011;47425;51.976;5.326;2022-08-19T19:33:42;1.17;;;1.00;;
61553;SDS011;47425;51.976;5.326;2022-08-19T19:36:09;1.20;;;0.80;;
61553;SDS011;47425;51.976;5.326;2022-08-19T19:38:36;2.03;;;0.90;;
61553;SDS011;47425;51.976;5.326;2022-08-19T19:41:02;1.63;;;1.00;;
61553;SDS011;47425;51.976;5.326;2022-08-19T19:43:28;2.22;;;1.00;;
61553;SDS011;47425;51.976;5.326;2022-08-19T19:45:54;0.82;;;0.80;;
61553;SDS011;47425;51.976;5.326;2022-08-19T19:48:21;2.83;;;0.90;;
61553;SDS011;47425;51.976;5.326;2022-08-19T19:50:48;1.47;;;1.00;;
61553;SDS011;47425;51.976;5.326;2022-08-19T19:53:14;1.42;;;1.00;;
61553;SDS011;47425;51.976;5.326;2022-08-19T19:55:40;2.17;;;0.85;;
61553;SDS011;47425;51.976;5.326;2022-08-19T19:58:07;0.90;;;0.90;;
61553;SDS011;47425;51.976;5.326;2022-08-19T20:00:33;1.33;;;1.08;;
61553;SDS011;47425;51.976;5.326;2022-08-19T20:02:59;3.03;;;0.93;;
61553;SDS011;47425;51.976;5.326;2022-08-19T20:05:26;1.67;;;0.98;;
61553;SDS011;47425;51.976;5.326;2022-08-19T20:07:52;1.10;;;1.00;;
61553;SDS011;47425;51.976;5.326;2022-08-19T20:10:39;3.22;;;0.88;;
61553;SDS011;47425;51.976;5.326;2022-08-19T20:13:06;1.25;;;0.90;;
61553;SDS011;47425;51.976;5.326;2022-08-19T20:15:35;1.77;;;1.10;;
61553;SDS011;47425;51.976;5.326;2022-08-19T20:18:01;2.83;;;0.90;;
61553;SDS011;47425;51.976;5.326;2022-08-19T20:20:29;3.65;;;0.82;;
61553;SDS011;47425;51.976;5.326;2022-08-19T20:22:55;0.63;;;0.60;;
61553;SDS011;47425;51.976;5.326;2022-08-19T20:25:23;2.50;;;0.90;;
61553;SDS011;47425;51.976;5.326;2022-08-19T20:27:49;1.67;;;0.80;;
61553;SDS011;47425;51.976;5.326;2022-08-19T20:30:15;0.95;;;0.80;;
61553;SDS011;47425;51.976;5.326;2022-08-19T20:32:44;1.13;;;0.80;;
61553;SDS011;47425;51.976;5.326;2022-08-19T20:35:13;0.77;;;0.70;;
61553;SDS011;47425;51.976;5.326;2022-08-19T20:40:06;0.93;;;0.80;;
61553;SDS011;47425;51.976;5.326;2022-08-19T20:42:39;1.05;;;0.80;;
61553;SDS011;47425;51.976;5.326;2022-08-19T20:45:09;1.45;;;1.20;;
61553;SDS011;47425;51.976;5.326;2022-08-19T20:47:38;1.30;;;0.73;;
61553;SDS011;47425;51.976;5.326;2022-08-19T20:50:05;0.70;;;0.70;;
61553;SDS011;47425;51.976;5.326;2022-08-19T20:52:33;5.10;;;0.73;;
61553;SDS011;47425;51.976;5.326;2022-08-19T20:55:00;0.98;;;0.93;;
61553;SDS011;47425;51.976;5.326;2022-08-19T20:57:27;1.10;;;0.90;;
61553;SDS011;47425;51.976;5.326;2022-08-19T20:59:52;2.97;;;1.20;;
61553;SDS011;47425;51.976;5.326;2022-08-19T21:02:18;1.20;;;1.00;;
61553;SDS011;47425;51.976;5.326;2022-08-19T21:04:45;1.05;;;0.85;;
61553;SDS011;47425;51.976;5.326;2022-08-19T21:07:12;2.07;;;0.93;;
61553;SDS011;47425;51.976;5.326;2022-08-19T21:09:40;1.88;;;1.00;;
61553;SDS011;47425;51.976;5.326;2022-08-19T21:12:06;2.78;;;1.08;;
61553;SDS011;47425;51.976;5.326;2022-08-19T21:14:37;2.63;;;0.90;;
61553;SDS011;47425;51.976;5.326;2022-08-19T21:17:07;1.73;;;0.90;;
61553;SDS011;47425;51.976;5.326;2022-08-19T21:19:33;1.52;;;1.00;;
61553;SDS011;47425;51.976;5.326;2022-08-19T21:21:59;2.00;;;1.10;;
61553;SDS011;47425;51.976;5.326;2022-08-19T21:24:25;0.90;;;0.88;;
61553;SDS011;47425;51.976;5.326;2022-08-19T21:26:53;1.33;;;0.93;;
61553;SDS011;47425;51.976;5.326;2022-08-19T21:29:18;1.45;;;1.00;;
61553;SDS011;47425;51.976;5.326;2022-08-19T21:31:44;1.38;;;1.02;;
61553;SDS011;47425;51.976;5.326;2022-08-19T21:34:09;3.20;;;1.02;;
61553;SDS011;47425;51.976;5.326;2022-08-19T21:36:35;2.20;;;0.98;;
61553;SDS011;47425;51.976;5.326;2022-08-19T21:39:00;1.38;;;1.00;;
61553;SDS011;47425;51.976;5.326;2022-08-19T21:41:26;1.38;;;1.00;;
61553;SDS011;47425;51.976;5.326;2022-08-19T21:43:53;2.35;;;1.13;;
61553;SDS011;47425;51.976;5.326;2022-08-19T21:46:18;2.28;;;1.10;;
61553;SDS011;47425;51.976;5.326;2022-08-19T21:48:43;1.23;;;1.13;;
61553;SDS011;47425;51.976;5.326;2022-08-19T21:51:10;1.25;;;1.00;;
61553;SDS011;47425;51.976;5.326;2022-08-19T21:53:35;1.60;;;1.20;;
61553;SDS011;47425;51.976;5.326;2022-08-19T21:56:04;3.45;;;1.20;;
61553;SDS011;47425;51.976;5.326;2022-08-19T21:58:33;1.55;;;1.15;;
61553;SDS011;47425;51.976;5.326;2022-08-19T22:01:02;1.50;;;1.40;;
61553;SDS011;47425;51.976;5.326;2022-08-19T22:03:33;1.90;;;1.30;;
61553;SDS011;47425;51.976;5.326;2022-08-19T22:06:00;2.35;;;1.40;;
61553;SDS011;47425;51.976;5.326;2022-08-19T22:08:25;1.65;;;1.20;;
61553;SDS011;47425;51.976;5.326;2022-08-19T22:10:52;1.60;;;1.40;;
61553;SDS011;47425;51.976;5.326;2022-08-19T22:13:18;2.75;;;1.35;;
61553;SDS011;47425;51.976;5.326;2022-08-19T22:15:44;1.42;;;1.20;;
61553;SDS011;47425;51.976;5.326;2022-08-19T22:18:11;1.02;;;0.98;;
61553;SDS011;47425;51.976;5.326;2022-08-19T22:20:43;1.52;;;1.05;;
61553;SDS011;47425;51.976;5.326;2022-08-19T22:23:09;1.20;;;1.10;;
61553;SDS011;47425;51.976;5.326;2022-08-19T22:25:36;1.55;;;1.25;;
61553;SDS011;47425;51.976;5.326;2022-08-19T22:28:06;1.48;;;1.23;;
